Time;durP1;ratioP1;P1;durP2;ratioP2;P2;SDS_P1;SDS_P2;PMS_P1;PMS_P2;Temp;Humidity;BMP_temperature;BMP_pressure;BME280_temperature;BME280_humidity;BME280_pressure;Samples;Min_cycle;Max_cycle;Signal;HPM_P1;HPM_P2
2023/12/31 00:01:25;;;;;;;2.03;1.40;;;;;;;-143.54;100.00;59916.91;5074003;28;20028;-81
2023/12/31 00:03:50;;;;;;;2.85;1.58;;;;;;;-143.54;100.00;59916.91;5073912;28;20103;-81
2023/12/31 00:06:15;;;;;;;3.35;1.55;;;;;;;-143.54;100.00;59916.91;5074338;28;20536;-81
2023/12/31 00:08:41;;;;;;;2.47;1.25;;;;;;;-143.54;100.00;59916.91;5073753;28;20170;-81
2023/12/31 00:11:06;;;;;;;3.50;1.60;;;;;;;-143.54;100.00;59916.91;5073857;28;20036;-80
2023/12/31 00:13:31;;;;;;;2.42;1.30;;;;;;;-143.54;100.00;59916.91;5073737;28;20404;-80
2023/12/31 00:15:57;;;;;;;1.63;1.30;;;;;;;-143.54;100.00;59916.91;5074594;28;20056;-80
2023/12/31 00:18:22;;;;;;;1.73;1.10;;;;;;;-143.54;100.00;59916.91;5072294;28;20021;-80
2023/12/31 00:20:47;;;;;;;1.48;1.20;;;;;;;-143.54;100.00;59916.91;5073852;28;20029;-80
2023/12/31 00:23:13;;;;;;;2.28;1.10;;;;;;;-143.54;100.00;59916.91;5074362;28;20387;-80
2023/12/31 00:25:39;;;;;;;2.28;1.30;;;;;;;-143.54;100.00;59916.91;5072815;28;20024;-79
2023/12/31 00:28:04;;;;;;;2.40;1.10;;;;;;;-143.54;100.00;59916.91;5073421;28;20048;-79
2023/12/31 00:30:29;;;;;;;2.35;1.77;;;;;;;-143.54;100.00;59916.91;5073844;28;20029;-80
2023/12/31 00:32:55;;;;;;;2.60;1.40;;;;;;;-143.54;100.00;59916.91;5072533;28;20032;-80
2023/12/31 00:35:20;;;;;;;3.17;1.35;;;;;;;-143.54;100.00;59916.91;5072961;28;20537;-80
2023/12/31 00:37:46;;;;;;;3.83;1.30;;;;;;;-143.54;100.00;59916.91;5073936;28;20028;-80
2023/12/31 00:40:12;;;;;;;2.83;1.50;;;;;;;-143.54;100.00;59916.91;5072925;28;20040;-80
2023/12/31 00:42:37;;;;;;;1.85;1.33;;;;;;;-143.54;100.00;59916.91;5073261;28;20082;-80
2023/12/31 00:45:03;;;;;;;3.60;1.20;;;;;;;-143.54;100.00;59916.91;5072607;28;20020;-80
2023/12/31 00:47:28;;;;;;;1.73;1.40;;;;;;;-143.54;100.00;59916.91;5073122;28;20024;-80
2023/12/31 00:49:53;;;;;;;2.95;1.05;;;;;;;-143.54;100.00;59916.91;5073252;28;20385;-80
2023/12/31 00:52:18;;;;;;;2.70;1.20;;;;;;;-143.54;100.00;59916.91;5071981;28;20108;-80
2023/12/31 00:54:44;;;;;;;2.78;1.10;;;;;;;-143.54;100.00;59916.91;5073324;28;20020;-80
2023/12/31 00:57:09;;;;;;;2.80;1.30;;;;;;;-143.54;100.00;59916.91;5073427;28;20457;-80
2023/12/31 00:59:34;;;;;;;2.38;1.00;;;;;;;-143.54;100.00;59916.91;5072068;28;20097;-80
2023/12/31 01:02:00;;;;;;;2.17;1.17;;;;;;;-143.54;100.00;59916.91;5073186;28;20028;-79
2023/12/31 01:04:25;;;;;;;3.70;1.60;;;;;;;-143.54;100.00;59916.91;5072413;28;20425;-80
2023/12/31 01:06:50;;;;;;;2.75;1.33;;;;;;;-143.54;100.00;59916.91;5072497;28;20039;-80
2023/12/31 01:09:16;;;;;;;1.73;1.10;;;;;;;-143.54;100.00;59916.91;5072546;28;20028;-80
2023/12/31 01:11:41;;;;;;;2.33;1.50;;;;;;;-143.54;100.00;59916.91;5071873;28;20032;-80
2023/12/31 01:14:07;;;;;;;2.28;1.25;;;;;;;-143.54;100.00;59916.91;5072241;28;20024;-80
2023/12/31 01:16:32;;;;;;;3.60;1.65;;;;;;;-143.54;100.00;59916.91;5074004;28;20529;-80
2023/12/31 01:18:57;;;;;;;3.38;1.55;;;;;;;-143.54;100.00;59916.91;5073143;28;20119;-80
2023/12/31 01:21:23;;;;;;;2.53;1.45;;;;;;;-143.54;100.00;59916.91;5071389;28;20027;-79
2023/12/31 01:23:48;;;;;;;1.70;1.20;;;;;;;-143.54;100.00;59916.91;5071747;28;20063;-80
2023/12/31 01:26:14;;;;;;;1.80;1.17;;;;;;;-143.54;100.00;59916.91;5072640;28;20021;-80
2023/12/31 01:28:39;;;;;;;2.58;1.30;;;;;;;-143.54;100.00;59916.91;5071469;28;20502;-80
2023/12/31 01:31:04;;;;;;;2.75;1.23;;;;;;;-143.54;100.00;59916.91;5072348;28;20028;-80
2023/12/31 01:33:30;;;;;;;2.63;1.27;;;;;;;-143.54;100.00;59916.91;5072229;28;20033;-80
2023/12/31 01:35:55;;;;;;;2.92;1.33;;;;;;;-143.54;100.00;59916.91;5071657;28;20103;-80
2023/12/31 01:38:20;;;;;;;2.50;1.38;;;;;;;-143.54;100.00;59916.91;5072051;28;20027;-80
2023/12/31 01:40:53;;;;;;;3.20;1.30;;;;;;;-143.54;100.00;59916.91;5072442;28;20020;-80
2023/12/31 01:43:19;;;;;;;1.97;1.23;;;;;;;-143.54;100.00;59916.91;5071518;28;20033;-80
2023/12/31 01:45:45;;;;;;;1.88;1.10;;;;;;;-143.54;100.00;59916.91;5072078;28;20102;-80
2023/12/31 01:48:11;;;;;;;2.35;1.30;;;;;;;-143.54;100.00;59916.91;5072082;28;20456;-80
2023/12/31 01:50:36;;;;;;;2.15;1.30;;;;;;;-143.54;100.00;59916.91;5068094;28;20456;-80
2023/12/31 01:53:02;;;;;;;1.92;1.15;;;;;;;-143.54;100.00;59916.91;5071555;28;20032;-80
2023/12/31 01:55:28;;;;;;;2.50;1.30;;;;;;;-143.54;100.00;59916.91;5071007;28;20067;-80
2023/12/31 01:57:53;;;;;;;4.13;1.30;;;;;;;-143.54;100.00;59916.91;5072286;28;20369;-80
2023/12/31 02:00:19;;;;;;;3.72;1.58;;;;;;;-143.54;100.00;59916.91;5070932;28;20165;-80
2023/12/31 02:02:47;;;;;;;1.90;1.20;;;;;;;-143.54;100.00;59916.91;5071480;28;20040;-80
2023/12/31 02:05:12;;;;;;;2.42;1.35;;;;;;;-143.54;100.00;59916.91;5071841;28;20077;-80
2023/12/31 02:07:37;;;;;;;2.55;1.60;;;;;;;-143.54;100.00;59916.91;5071291;28;20024;-80
2023/12/31 02:10:04;;;;;;;3.35;1.42;;;;;;;-143.54;100.00;59916.91;5070745;28;20056;-80
2023/12/31 02:12:29;;;;;;;3.05;1.40;;;;;;;-143.54;100.00;59916.91;5070312;28;20032;-80
2023/12/31 02:14:55;;;;;;;1.67;1.40;;;;;;;-143.54;100.00;59916.91;5075650;28;20482;-80
2023/12/31 02:17:20;;;;;;;2.25;1.40;;;;;;;-143.54;100.00;59916.91;5077030;28;20031;-80
2023/12/31 02:19:46;;;;;;;1.73;1.50;;;;;;;-143.54;100.00;59916.91;5072406;28;20024;-80
2023/12/31 02:22:11;;;;;;;1.63;1.35;;;;;;;-143.54;100.00;59916.91;5074204;28;20024;-80
2023/12/31 02:24:45;;;;;;;2.75;1.48;;;;;;;-143.54;100.00;59916.91;5078726;28;20395;-80
2023/12/31 02:27:11;;;;;;;3.70;1.55;;;;;;;-143.54;100.00;59916.91;5066593;28;20036;-80
2023/12/31 02:29:36;;;;;;;1.98;1.67;;;;;;;-143.54;100.00;59916.91;5081226;28;20816;-80
2023/12/31 02:32:01;;;;;;;2.63;1.60;;;;;;;-143.54;100.00;59916.91;5072548;28;20127;-80
2023/12/31 02:34:27;;;;;;;2.95;1.67;;;;;;;-143.54;100.00;59916.91;5074344;28;20081;-80
2023/12/31 02:36:52;;;;;;;4.43;1.60;;;;;;;-143.54;100.00;59916.91;5075129;28;20480;-80
2023/12/31 02:39:17;;;;;;;2.88;1.60;;;;;;;-143.54;100.00;59916.91;5074059;28;20024;-80
2023/12/31 02:41:43;;;;;;;4.93;1.70;;;;;;;-143.54;100.00;59916.91;5079093;28;20476;-80
2023/12/31 02:44:08;;;;;;;2.88;2.30;;;;;;;-143.54;100.00;59916.91;5077988;28;20100;-80
2023/12/31 02:46:33;;;;;;;3.25;2.15;;;;;;;-143.54;100.00;59916.91;5072859;28;20029;-80
2023/12/31 02:48:58;;;;;;;4.57;1.60;;;;;;;-143.54;100.00;59916.91;5078402;28;20028;-80
2023/12/31 02:51:24;;;;;;;2.42;1.70;;;;;;;-143.54;100.00;59916.91;5080944;28;20036;-80
2023/12/31 02:53:49;;;;;;;2.08;1.42;;;;;;;-143.54;100.00;59916.91;5077009;28;20024;-80
2023/12/31 02:56:14;;;;;;;2.78;1.50;;;;;;;-143.54;100.00;59916.91;5079527;28;20456;-79
2023/12/31 02:58:39;;;;;;;2.53;1.50;;;;;;;-143.54;100.00;59916.91;5075865;28;20039;-80
2023/12/31 03:01:05;;;;;;;3.70;1.70;;;;;;;-143.54;100.00;59916.91;5079855;28;20031;-80
2023/12/31 03:03:30;;;;;;;2.50;1.33;;;;;;;-143.54;100.00;59916.91;5083972;28;20463;-80
2023/12/31 03:05:55;;;;;;;2.03;1.40;;;;;;;-143.54;100.00;59916.91;5079126;28;20036;-79
2023/12/31 03:08:21;;;;;;;3.30;1.67;;;;;;;-143.54;100.00;59916.91;5083590;28;20023;-80
2023/12/31 03:10:47;;;;;;;3.17;1.42;;;;;;;-143.54;100.00;59916.91;5079754;28;20033;-80
2023/12/31 03:13:12;;;;;;;1.85;1.35;;;;;;;-143.54;100.00;59916.91;5075138;28;20024;-80
2023/12/31 03:15:38;;;;;;;2.92;1.52;;;;;;;-143.54;100.00;59916.91;5080014;28;20107;-80
2023/12/31 03:18:04;;;;;;;1.70;1.50;;;;;;;-143.54;100.00;59916.91;5080515;28;20460;-79
2023/12/31 03:20:29;;;;;;;3.17;1.50;;;;;;;-143.54;100.00;59916.91;5079371;28;20028;-80
2023/12/31 03:22:55;;;;;;;3.60;1.50;;;;;;;-143.54;100.00;59916.91;5075348;28;20025;-80
2023/12/31 03:25:20;;;;;;;3.85;1.70;;;;;;;-143.54;100.00;59916.91;5076369;28;20528;-80
2023/12/31 03:27:45;;;;;;;2.53;1.77;;;;;;;-143.54;100.00;59916.91;5074276;28;20443;-80
2023/12/31 03:30:11;;;;;;;6.03;1.55;;;;;;;-143.54;100.00;59916.91;5075199;28;20074;-80
2023/12/31 03:32:36;;;;;;;2.55;1.63;;;;;;;-143.54;100.00;59916.91;5077376;28;20063;-80
2023/12/31 03:35:02;;;;;;;2.15;1.50;;;;;;;-143.54;100.00;59916.91;5073326;28;20056;-80
2023/12/31 03:37:27;;;;;;;2.42;1.58;;;;;;;-143.54;100.00;59916.91;5074445;28;20028;-80
2023/12/31 03:39:54;;;;;;;1.88;1.30;;;;;;;-143.54;100.00;59916.91;5079946;28;20475;-80
2023/12/31 03:42:20;;;;;;;1.75;1.45;;;;;;;-143.54;100.00;59916.91;5073460;28;20044;-80
2023/12/31 03:44:47;;;;;;;3.45;2.53;;;;;;;-143.54;100.00;59916.91;5076880;28;20027;-80
2023/12/31 03:47:12;;;;;;;4.20;2.45;;;;;;;-143.54;100.00;59916.91;5074697;28;20516;-80
2023/12/31 03:49:37;;;;;;;2.30;2.10;;;;;;;-143.54;100.00;59916.91;5077493;28;20096;-80
2023/12/31 03:52:03;;;;;;;4.05;3.00;;;;;;;-143.54;100.00;59916.91;5082969;28;20028;-80
2023/12/31 03:54:28;;;;;;;6.80;4.40;;;;;;;-143.54;100.00;59916.91;5075907;28;20112;-80
2023/12/31 03:56:53;;;;;;;6.78;6.07;;;;;;;-143.54;100.00;59916.91;5079312;28;20506;-80
2023/12/31 03:59:19;;;;;;;3.20;2.67;;;;;;;-143.54;100.00;59916.91;5075215;28;20025;-80
2023/12/31 04:01:47;;;;;;;6.07;4.00;;;;;;;-143.54;100.00;59916.91;5083554;28;20028;-80
2023/12/31 04:04:16;;;;;;;2.90;2.40;;;;;;;-143.54;100.00;59916.91;5075024;28;20028;-80
2023/12/31 04:06:42;;;;;;;4.40;2.22;;;;;;;-143.54;100.00;59916.91;5075592;28;20028;-80
2023/12/31 04:09:09;;;;;;;2.92;2.17;;;;;;;-143.54;100.00;59916.91;5073776;28;20384;-80
2023/12/31 04:11:34;;;;;;;2.47;1.67;;;;;;;-143.54;100.00;59916.91;5079382;28;20104;-80
2023/12/31 04:14:00;;;;;;;1.95;1.55;;;;;;;-143.54;100.00;59916.91;5079044;28;20103;-80
2023/12/31 04:16:25;;;;;;;2.70;1.58;;;;;;;-143.54;100.00;59916.91;5072004;28;20033;-80
2023/12/31 04:18:50;;;;;;;2.97;1.88;;;;;;;-143.54;100.00;59916.91;5067910;28;20464;-80
2023/12/31 04:21:15;;;;;;;4.72;1.55;;;;;;;-143.54;100.00;59916.91;5079089;28;20069;-81
2023/12/31 04:23:41;;;;;;;2.67;1.60;;;;;;;-143.54;100.00;59916.91;5076671;28;20040;-80
2023/12/31 04:26:07;;;;;;;2.13;1.60;;;;;;;-143.54;100.00;59916.91;5080339;28;20362;-80
2023/12/31 04:28:32;;;;;;;3.80;1.63;;;;;;;-143.54;100.00;59916.91;5076491;28;20059;-80
2023/12/31 04:30:57;;;;;;;2.80;1.75;;;;;;;-143.54;100.00;59916.91;5075049;28;20024;-80
2023/12/31 04:33:22;;;;;;;2.47;1.48;;;;;;;-143.54;100.00;59916.91;5081982;28;20024;-80
2023/12/31 04:35:48;;;;;;;2.65;1.77;;;;;;;-143.54;100.00;59916.91;5080398;28;20170;-80
2023/12/31 04:38:13;;;;;;;2.13;1.60;;;;;;;-143.54;100.00;59916.91;5074577;28;20062;-80
2023/12/31 04:40:38;;;;;;;6.28;1.80;;;;;;;-143.54;100.00;59916.91;5066962;28;20020;-80
2023/12/31 04:43:04;;;;;;;2.63;2.00;;;;;;;-143.54;100.00;59916.91;5074092;28;20024;-80
2023/12/31 04:45:29;;;;;;;3.25;2.05;;;;;;;-143.54;100.00;59916.91;5069779;28;20039;-80
2023/12/31 04:47:54;;;;;;;2.33;1.70;;;;;;;-143.54;100.00;59916.91;5075234;28;20024;-80
2023/12/31 04:50:19;;;;;;;2.60;1.90;;;;;;;-143.54;100.00;59916.91;5073330;28;20064;-80
2023/12/31 04:52:45;;;;;;;4.55;1.75;;;;;;;-143.54;100.00;59916.91;5072496;28;20032;-80
2023/12/31 04:55:10;;;;;;;3.90;1.70;;;;;;;-143.54;100.00;59916.91;5073669;28;20033;-80
2023/12/31 04:57:36;;;;;;;2.75;2.17;;;;;;;-143.54;100.00;59916.91;5073324;28;20031;-80
2023/12/31 05:00:02;;;;;;;3.30;2.10;;;;;;;-143.54;100.00;59916.91;5076550;28;20082;-80
2023/12/31 05:02:28;;;;;;;4.53;1.98;;;;;;;-143.54;100.00;59916.91;5072578;28;20510;-80
2023/12/31 05:04:53;;;;;;;3.05;1.90;;;;;;;-143.54;100.00;59916.91;5078213;28;20056;-80
2023/12/31 05:07:18;;;;;;;2.78;2.13;;;;;;;-143.54;100.00;59916.91;5079711;28;20086;-80
2023/12/31 05:09:44;;;;;;;2.72;1.73;;;;;;;-143.54;100.00;59916.91;5075747;28;20029;-79
2023/12/31 05:12:09;;;;;;;2.78;2.00;;;;;;;-143.54;100.00;59916.91;5081263;28;20043;-80
2023/12/31 05:14:34;;;;;;;2.67;1.80;;;;;;;-143.54;100.00;59916.91;5078563;28;20108;-80
2023/12/31 05:16:59;;;;;;;2.33;1.95;;;;;;;-143.54;100.00;59916.91;5074439;28;20478;-80
2023/12/31 05:19:25;;;;;;;3.00;1.90;;;;;;;-143.54;100.00;59916.91;5069336;28;20028;-80
2023/12/31 05:21:50;;;;;;;3.30;1.95;;;;;;;-143.54;100.00;59916.91;5077155;28;20093;-80
2023/12/31 05:24:15;;;;;;;3.30;2.10;;;;;;;-143.54;100.00;59916.91;5073300;28;20037;-80
2023/12/31 05:26:41;;;;;;;2.60;1.83;;;;;;;-143.54;100.00;59916.91;5072880;28;20041;-80
2023/12/31 05:29:08;;;;;;;2.95;1.95;;;;;;;-143.54;100.00;59916.91;5072883;28;20433;-80
2023/12/31 05:31:36;;;;;;;2.75;1.85;;;;;;;-143.54;100.00;59916.91;5072949;28;20016;-80
2023/12/31 05:34:01;;;;;;;2.83;2.08;;;;;;;-143.54;100.00;59916.91;5077335;28;20028;-79
2023/12/31 05:36:26;;;;;;;4.40;2.20;;;;;;;-143.54;100.00;59916.91;5076765;28;20029;-80
2023/12/31 05:38:52;;;;;;;2.88;2.08;;;;;;;-143.54;100.00;59916.91;5073596;28;20515;-80
2023/12/31 05:41:17;;;;;;;3.50;2.25;;;;;;;-143.54;100.00;59916.91;5077706;28;20388;-80
2023/12/31 05:43:42;;;;;;;2.88;2.20;;;;;;;-143.54;100.00;59916.91;5075754;28;20032;-79
2023/12/31 05:46:08;;;;;;;2.33;2.00;;;;;;;-143.54;100.00;59916.91;5078826;28;20024;-80
2023/12/31 05:48:33;;;;;;;2.58;2.20;;;;;;;-143.54;100.00;59916.91;5074281;28;20028;-80
2023/12/31 05:50:58;;;;;;;2.65;2.08;;;;;;;-143.54;100.00;59916.91;5072150;28;20052;-80
2023/12/31 05:53:24;;;;;;;2.45;2.17;;;;;;;-143.54;100.00;59916.91;5071851;28;20027;-79
2023/12/31 05:55:50;;;;;;;3.15;2.22;;;;;;;-143.54;100.00;59916.91;5073338;28;20035;-80
2023/12/31 05:58:15;;;;;;;2.85;2.20;;;;;;;-143.54;100.00;59916.91;5075598;28;20490;-80
2023/12/31 06:00:40;;;;;;;3.92;2.50;;;;;;;-143.54;100.00;59916.91;5077392;28;20048;-79
2023/12/31 06:03:05;;;;;;;2.78;2.30;;;;;;;-143.54;100.00;59916.91;5068334;28;20079;-80
2023/12/31 06:05:31;;;;;;;2.65;2.20;;;;;;;-143.54;100.00;59916.91;5069388;28;20063;-80
2023/12/31 06:07:56;;;;;;;3.13;2.10;;;;;;;-143.54;100.00;59916.91;5073380;28;20491;-80
2023/12/31 06:10:22;;;;;;;2.30;2.10;;;;;;;-143.54;100.00;59916.91;5076329;28;20033;-80
2023/12/31 06:12:47;;;;;;;3.55;2.38;;;;;;;-143.54;100.00;59916.91;5078786;28;20516;-80
2023/12/31 06:15:12;;;;;;;3.78;2.25;;;;;;;-143.54;100.00;59916.91;5075396;28;20158;-80
2023/12/31 06:17:39;;;;;;;2.45;2.00;;;;;;;-143.54;100.00;59916.91;5076884;28;20107;-80
2023/12/31 06:20:06;;;;;;;2.97;2.20;;;;;;;-143.54;100.00;59916.91;5074405;28;20012;-80
2023/12/31 06:22:33;;;;;;;2.67;2.22;;;;;;;-143.54;100.00;59916.91;5076638;28;20204;-80
2023/12/31 06:24:58;;;;;;;3.05;2.45;;;;;;;-143.54;100.00;59916.91;5073429;28;20025;-80
2023/12/31 06:27:24;;;;;;;3.72;2.40;;;;;;;-143.54;100.00;59916.91;5074177;28;20058;-80
2023/12/31 06:29:50;;;;;;;3.03;2.17;;;;;;;-143.54;100.00;59916.91;5077546;28;20491;-80
2023/12/31 06:32:16;;;;;;;3.35;2.25;;;;;;;-143.54;100.00;59916.91;5072964;28;20148;-80
2023/12/31 06:34:42;;;;;;;3.40;2.35;;;;;;;-143.54;100.00;59916.91;5070210;28;20473;-80
2023/12/31 06:37:07;;;;;;;3.50;2.40;;;;;;;-143.54;100.00;59916.91;5065356;28;20075;-79
2023/12/31 06:39:32;;;;;;;3.15;2.20;;;;;;;-143.54;100.00;59916.91;5072070;28;20032;-80
2023/12/31 06:41:58;;;;;;;2.50;2.17;;;;;;;-143.54;100.00;59916.91;5069117;28;20024;-80
2023/12/31 06:44:23;;;;;;;2.65;2.05;;;;;;;-143.54;100.00;59916.91;5059539;28;20020;-80
2023/12/31 06:46:48;;;;;;;3.25;2.08;;;;;;;-143.54;100.00;59916.91;5055319;28;20025;-80
2023/12/31 06:49:14;;;;;;;2.38;1.92;;;;;;;-143.54;100.00;59916.91;5058674;28;20051;-80
2023/12/31 06:51:39;;;;;;;2.70;2.03;;;;;;;-143.54;100.00;59916.91;5059586;28;20036;-80
2023/12/31 06:54:05;;;;;;;3.90;2.30;;;;;;;-143.54;100.00;59916.91;5059830;28;20032;-80
2023/12/31 06:56:30;;;;;;;2.70;2.25;;;;;;;-143.54;100.00;59916.91;5057947;28;20097;-80
2023/12/31 06:58:56;;;;;;;2.17;1.98;;;;;;;-143.54;100.00;59916.91;5060250;28;20032;-81
2023/12/31 07:01:21;;;;;;;2.42;2.00;;;;;;;-143.54;100.00;59916.91;5063266;28;20423;-80
2023/12/31 07:03:46;;;;;;;2.47;2.28;;;;;;;-143.54;100.00;59916.91;5061119;28;20033;-80
2023/12/31 07:06:12;;;;;;;3.35;2.45;;;;;;;-143.54;100.00;59916.91;5066687;28;20025;-80
2023/12/31 07:08:37;;;;;;;3.75;2.53;;;;;;;-143.54;100.00;59916.91;5070607;28;20028;-80
2023/12/31 07:11:04;;;;;;;2.83;2.10;;;;;;;-143.54;100.00;59916.91;5071168;28;20029;-80
2023/12/31 07:13:30;;;;;;;2.30;1.85;;;;;;;-143.54;100.00;59916.91;5070470;28;20082;-81
2023/12/31 07:15:58;;;;;;;4.30;2.10;;;;;;;-143.54;100.00;59916.91;5070507;28;20025;-81
2023/12/31 07:18:23;;;;;;;2.60;2.40;;;;;;;-143.54;100.00;59916.91;5068176;28;20021;-81
2023/12/31 07:20:49;;;;;;;2.63;1.95;;;;;;;-143.54;100.00;59916.91;5064970;28;20464;-81
2023/12/31 07:23:14;;;;;;;2.88;2.42;;;;;;;-143.54;100.00;59916.91;5073335;28;20036;-82
2023/12/31 07:25:40;;;;;;;2.78;1.83;;;;;;;-143.54;100.00;59916.91;5075804;28;20480;-82
2023/12/31 07:28:05;;;;;;;2.50;2.22;;;;;;;-143.54;100.00;59916.91;5074467;28;20127;-81
2023/12/31 07:30:30;;;;;;;2.53;2.33;;;;;;;-143.54;100.00;59916.91;5078356;28;20128;-81
2023/12/31 07:32:56;;;;;;;2.40;1.92;;;;;;;-143.54;100.00;59916.91;5069653;28;20431;-81
2023/12/31 07:35:21;;;;;;;2.50;2.30;;;;;;;-143.54;100.00;59916.91;5074621;28;20435;-82
2023/12/31 07:37:47;;;;;;;2.50;2.20;;;;;;;-143.54;100.00;59916.91;5077424;28;20028;-81
2023/12/31 07:40:13;;;;;;;2.85;2.30;;;;;;;-143.54;100.00;59916.91;5073426;28;20087;-81
2023/12/31 07:42:38;;;;;;;3.05;2.38;;;;;;;-143.54;100.00;59916.91;5076867;28;20471;-80
2023/12/31 07:45:08;;;;;;;3.28;2.33;;;;;;;-143.54;100.00;59916.91;5080407;28;20031;-79
2023/12/31 07:47:35;;;;;;;2.92;2.40;;;;;;;-143.54;100.00;59916.91;5069933;28;20094;-78
2023/12/31 07:50:02;;;;;;;2.97;2.30;;;;;;;-143.54;100.00;59916.91;5079456;28;20066;-79
2023/12/31 07:52:28;;;;;;;3.03;2.50;;;;;;;-143.54;100.00;59916.91;5072874;28;20028;-79
2023/12/31 07:54:53;;;;;;;2.55;2.15;;;;;;;-143.54;100.00;59916.91;5074433;28;20370;-77
2023/12/31 07:57:19;;;;;;;3.05;2.45;;;;;;;-143.54;100.00;59916.91;5069449;28;20028;-79
2023/12/31 07:59:44;;;;;;;2.75;2.17;;;;;;;-143.54;100.00;59916.91;5072594;28;20095;-78
2023/12/31 08:02:09;;;;;;;3.70;2.60;;;;;;;-143.54;100.00;59916.91;5080589;28;20032;-79
2023/12/31 08:04:34;;;;;;;3.60;2.15;;;;;;;-143.54;100.00;59916.91;5073293;28;20032;-79
2023/12/31 08:07:00;;;;;;;3.28;2.35;;;;;;;-143.54;100.00;59916.91;5082565;28;20035;-78
2023/12/31 08:09:25;;;;;;;2.30;2.10;;;;;;;-143.54;100.00;59916.91;5073725;28;20040;-78
2023/12/31 08:11:50;;;;;;;3.67;2.10;;;;;;;-143.54;100.00;59916.91;5077238;28;20536;-79
2023/12/31 08:14:16;;;;;;;3.08;2.28;;;;;;;-143.54;100.00;59916.91;5074498;28;20024;-79
2023/12/31 08:16:41;;;;;;;2.97;2.40;;;;;;;-143.54;100.00;59916.91;5078547;28;20024;-79
2023/12/31 08:19:06;;;;;;;3.53;2.45;;;;;;;-143.54;100.00;59916.91;5078594;28;20043;-79
2023/12/31 08:21:32;;;;;;;2.75;2.20;;;;;;;-143.54;100.00;59916.91;5078061;28;20448;-79
2023/12/31 08:23:57;;;;;;;3.80;2.55;;;;;;;-143.54;100.00;59916.91;5082788;28;20039;-79
2023/12/31 08:26:23;;;;;;;2.80;2.22;;;;;;;-143.54;100.00;59916.91;5076900;28;20500;-79
2023/12/31 08:28:48;;;;;;;4.22;2.28;;;;;;;-143.54;100.00;59916.91;5078169;28;20029;-79
2023/12/31 08:31:15;;;;;;;2.33;2.00;;;;;;;-143.54;100.00;59916.91;5078884;28;20051;-79
2023/12/31 08:33:40;;;;;;;2.70;2.03;;;;;;;-143.54;100.00;59916.91;5076158;28;20024;-79
2023/12/31 08:36:06;;;;;;;2.83;2.30;;;;;;;-143.54;100.00;59916.91;5080444;28;20624;-79
2023/12/31 08:38:31;;;;;;;3.15;2.40;;;;;;;-143.54;100.00;59916.91;5074758;28;20028;-79
2023/12/31 08:40:57;;;;;;;3.55;2.83;;;;;;;-143.54;100.00;59916.91;5080032;28;20047;-79
2023/12/31 08:43:22;;;;;;;4.30;2.60;;;;;;;-143.54;100.00;59916.91;5075068;28;20488;-79
2023/12/31 08:45:47;;;;;;;2.67;2.20;;;;;;;-143.54;100.00;59916.91;5079562;28;20036;-78
2023/12/31 08:48:13;;;;;;;3.03;2.70;;;;;;;-143.54;100.00;59916.91;5076253;28;20394;-79
2023/12/31 08:50:38;;;;;;;3.08;2.45;;;;;;;-143.54;100.00;59916.91;5077964;28;20029;-79
2023/12/31 08:53:04;;;;;;;2.65;2.28;;;;;;;-143.54;100.00;59916.91;5076210;28;20487;-79
2023/12/31 08:55:29;;;;;;;2.97;2.30;;;;;;;-143.54;100.00;59916.91;5078180;28;20468;-79
2023/12/31 08:57:54;;;;;;;2.28;2.08;;;;;;;-143.54;100.00;59916.91;5075338;28;20042;-79
2023/12/31 09:00:20;;;;;;;2.22;2.03;;;;;;;-143.54;100.00;59916.91;5078229;28;20017;-79
2023/12/31 09:02:48;;;;;;;2.47;2.05;;;;;;;-143.54;100.00;59916.91;5081605;28;20120;-79
2023/12/31 09:05:13;;;;;;;2.92;2.45;;;;;;;-143.54;100.00;59916.91;5079387;28;20020;-79
2023/12/31 09:07:41;;;;;;;3.05;2.22;;;;;;;-143.54;100.00;59916.91;5080742;28;20036;-79
2023/12/31 09:10:07;;;;;;;3.50;3.20;;;;;;;-143.54;100.00;59916.91;5080535;28;20051;-79
2023/12/31 09:12:33;;;;;;;4.60;3.85;;;;;;;-143.54;100.00;59916.91;5079202;28;20443;-79
2023/12/31 09:14:58;;;;;;;4.88;3.80;;;;;;;-143.54;100.00;59916.91;5077921;28;20024;-79
2023/12/31 09:17:24;;;;;;;5.78;3.38;;;;;;;-143.54;100.00;59916.91;5081729;28;20068;-79
2023/12/31 09:19:49;;;;;;;4.15;3.40;;;;;;;-143.54;100.00;59916.91;5075326;28;20021;-79
2023/12/31 09:22:14;;;;;;;5.03;3.35;;;;;;;-143.54;100.00;59916.91;5083446;28;20384;-79
2023/12/31 09:24:40;;;;;;;4.25;3.35;;;;;;;-143.54;100.00;59916.91;5079575;28;20028;-79
2023/12/31 09:27:07;;;;;;;5.72;3.28;;;;;;;-143.54;100.00;59916.91;5073452;28;20036;-79
2023/12/31 09:29:34;;;;;;;3.80;2.63;;;;;;;-143.54;100.00;59916.91;5080738;28;20046;-79
2023/12/31 09:31:59;;;;;;;3.25;1.88;;;;;;;-143.54;100.00;59916.91;5073340;28;20027;-79
2023/12/31 09:34:24;;;;;;;2.25;1.50;;;;;;;-143.54;100.00;59916.91;5079677;28;20028;-79
2023/12/31 09:36:50;;;;;;;2.72;1.33;;;;;;;-143.54;100.00;59916.91;5073855;28;20556;-79
2023/12/31 09:39:15;;;;;;;1.63;1.20;;;;;;;-143.54;100.00;59916.91;5075271;28;20038;-79
2023/12/31 09:41:42;;;;;;;1.50;1.10;;;;;;;-143.54;100.00;59916.91;5074123;28;20074;-79
2023/12/31 09:44:07;;;;;;;2.85;1.10;;;;;;;-143.54;100.00;59916.91;5076085;28;20036;-79
2023/12/31 09:46:38;;;;;;;3.25;1.48;;;;;;;-143.54;100.00;59916.91;5076171;28;20379;-79
2023/12/31 09:49:05;;;;;;;1.70;1.13;;;;;;;-143.54;100.00;59916.91;5083884;28;20024;-79
2023/12/31 09:51:32;;;;;;;1.25;1.00;;;;;;;-143.54;100.00;59916.91;5066239;28;20035;-79
2023/12/31 09:53:59;;;;;;;1.95;1.38;;;;;;;-143.54;100.00;59916.91;5074537;28;20056;-79
2023/12/31 09:56:27;;;;;;;2.25;0.90;;;;;;;-143.54;100.00;59916.91;5081363;28;20030;-79
2023/12/31 09:58:55;;;;;;;4.43;1.02;;;;;;;-143.54;100.00;59916.91;5078491;28;20038;-79
2023/12/31 10:01:24;;;;;;;2.53;1.00;;;;;;;-143.54;100.00;59916.91;5078956;28;20028;-79
2023/12/31 10:03:50;;;;;;;4.10;1.45;;;;;;;-143.54;100.00;59916.91;5079495;28;20035;-79
2023/12/31 10:06:16;;;;;;;2.55;1.00;;;;;;;-143.54;100.00;59916.91;5078271;28;20467;-79
2023/12/31 10:08:43;;;;;;;2.13;1.40;;;;;;;-143.54;100.00;59916.91;5079544;28;20060;-79
2023/12/31 10:11:08;;;;;;;1.83;0.90;;;;;;;-143.54;100.00;59916.91;5076928;28;20028;-79
2023/12/31 10:13:34;;;;;;;2.40;1.13;;;;;;;-143.54;100.00;59916.91;5073545;28;20033;-79
2023/12/31 10:15:59;;;;;;;2.97;1.25;;;;;;;-143.54;100.00;59916.91;5076321;28;20021;-79
2023/12/31 10:18:27;;;;;;;2.00;1.00;;;;;;;-143.54;100.00;59916.91;5080903;28;20032;-79
2023/12/31 10:20:52;;;;;;;1.50;1.05;;;;;;;-143.54;100.00;59916.91;5076699;28;20027;-79
2023/12/31 10:23:18;;;;;;;3.85;1.13;;;;;;;-143.54;100.00;59916.91;5074129;28;20028;-79
2023/12/31 10:25:44;;;;;;;1.48;1.10;;;;;;;-143.54;100.00;59916.91;5071891;28;20027;-79
2023/12/31 10:28:09;;;;;;;1.48;0.95;;;;;;;-143.54;100.00;59916.91;5072892;28;20051;-79
2023/12/31 10:30:38;;;;;;;5.30;1.15;;;;;;;-143.54;100.00;59916.91;5065084;28;20457;-80
2023/12/31 10:33:09;;;;;;;5.10;1.13;;;;;;;-143.54;100.00;59916.91;5068326;28;20032;-79
2023/12/31 10:35:35;;;;;;;3.80;1.30;;;;;;;-143.54;100.00;59916.91;5077444;28;20468;-79
2023/12/31 10:38:04;;;;;;;4.20;1.27;;;;;;;-143.54;100.00;59916.91;5074254;28;20040;-79
2023/12/31 10:40:30;;;;;;;2.95;1.17;;;;;;;-143.54;100.00;59916.91;5077056;28;20384;-79
2023/12/31 10:42:56;;;;;;;4.25;1.48;;;;;;;-143.54;100.00;59916.91;5073447;28;20020;-79
2023/12/31 10:45:22;;;;;;;2.70;1.27;;;;;;;-143.54;100.00;59916.91;5076903;28;20514;-79
2023/12/31 10:47:53;;;;;;;4.60;2.17;;;;;;;-143.54;100.00;59916.91;5074497;28;20018;-80
2023/12/31 10:50:23;;;;;;;3.45;1.10;;;;;;;-143.54;100.00;59916.91;5075964;28;20024;-79
2023/12/31 10:52:50;;;;;;;3.10;1.27;;;;;;;-143.54;100.00;59916.91;5082412;28;20115;-79
2023/12/31 10:55:16;;;;;;;3.25;1.20;;;;;;;-143.54;100.00;59916.91;5069007;28;20024;-79
2023/12/31 10:57:42;;;;;;;3.08;1.30;;;;;;;-143.54;100.00;59916.91;5079595;28;20024;-79
2023/12/31 11:00:11;;;;;;;2.15;1.05;;;;;;;-143.54;100.00;59916.91;5073076;28;20029;-79
2023/12/31 11:02:37;;;;;;;1.95;1.00;;;;;;;-143.54;100.00;59916.91;5080919;28;20029;-79